Time;durP1;ratioP1;P1;durP2;ratioP2;P2;SDS_P1;SDS_P2;PMS_P1;PMS_P2;Temp;Humidity;BMP_temperature;BMP_pressure;BME280_temperature;BME280_humidity;BME280_pressure;Samples;Min_cycle;Max_cycle;Signal;HPM_P1;HPM_P2
2023/01/01 00:01:46;;;;;;;11.13;4.50;;;;;;;16.09;52.56;100191.38;4987011;28;20210;-81
2023/01/01 00:04:14;;;;;;;12.10;3.97;;;;;;;16.13;52.51;100187.41;4999339;28;20737;-81
2023/01/01 00:06:44;;;;;;;67.30;30.20;;;;;;;16.13;52.42;100206.19;4995812;28;20231;-82
2023/01/01 00:11:54;;;;;;;11.87;4.27;;;;;;;16.11;52.31;100202.84;4984980;28;20214;-81
2023/01/01 00:14:21;;;;;;;7.83;2.80;;;;;;;16.14;52.21;100207.91;4992648;28;20229;-82
2023/01/01 00:16:49;;;;;;;8.83;4.63;;;;;;;16.17;51.98;100202.25;4998194;28;20230;-82
2023/01/01 00:19:15;;;;;;;8.97;4.40;;;;;;;16.16;52.26;100204.06;4995759;28;20208;-80
2023/01/01 00:21:45;;;;;;;6.67;2.77;;;;;;;16.20;52.18;100196.59;4995040;28;20200;-81
2023/01/01 00:24:12;;;;;;;9.40;3.63;;;;;;;16.22;51.95;100202.66;4995784;28;20328;-82
2023/01/01 00:26:38;;;;;;;7.80;2.53;;;;;;;16.23;52.13;100204.38;5000666;28;20703;-80
2023/01/01 00:29:05;;;;;;;7.57;2.03;;;;;;;16.26;51.74;100198.72;4992049;28;20225;-81
2023/01/01 00:31:32;;;;;;;9.80;2.80;;;;;;;16.27;51.77;100193.19;4981371;28;20205;-82
2023/01/01 00:33:59;;;;;;;7.87;3.87;;;;;;;16.26;51.65;100206.75;4992591;28;20213;-80
2023/01/01 00:36:27;;;;;;;5.50;2.20;;;;;;;16.26;51.66;100201.38;4994392;28;20243;-82
2023/01/01 00:38:56;;;;;;;5.17;2.93;;;;;;;16.30;51.76;100197.44;4992617;28;20205;-82
2023/01/01 00:41:23;;;;;;;31.87;14.43;;;;;;;16.31;51.58;100199.09;4988521;28;21529;-81
2023/01/01 00:43:49;;;;;;;9.00;2.97;;;;;;;16.30;51.62;100194.75;5001955;28;20205;-81
2023/01/01 00:46:16;;;;;;;20.57;9.30;;;;;;;16.31;51.62;100215.22;5000014;28;20235;-80
2023/01/01 00:48:42;;;;;;;13.67;7.07;;;;;;;16.32;51.66;100200.78;4997426;28;20237;-81
2023/01/01 00:51:09;;;;;;;6.03;2.20;;;;;;;16.36;51.48;100204.03;4999460;28;20219;-82
2023/01/01 00:53:36;;;;;;;4.47;2.67;;;;;;;16.33;51.75;100197.97;5003157;28;20209;-80
2023/01/01 00:56:04;;;;;;;14.67;4.57;;;;;;;16.32;51.54;100203.47;4997533;28;20224;-80
2023/01/01 00:58:30;;;;;;;9.50;2.90;;;;;;;16.35;51.41;100192.44;5004277;28;20225;-80
2023/01/01 01:00:57;;;;;;;6.10;3.03;;;;;;;16.42;51.28;100200.78;4997694;28;20229;-81
2023/01/01 01:03:30;;;;;;;8.40;2.90;;;;;;;16.41;51.20;100216.06;4995055;28;20591;-80
2023/01/01 01:05:58;;;;;;;10.37;5.93;;;;;;;16.40;51.35;100200.09;4997869;28;20241;-81
2023/01/01 01:08:25;;;;;;;13.27;7.33;;;;;;;16.39;51.30;100201.91;4996677;28;20206;-80
2023/01/01 01:10:54;;;;;;;6.87;2.47;;;;;;;16.39;51.31;100218.03;4993469;28;20217;-81
2023/01/01 01:13:22;;;;;;;8.23;2.40;;;;;;;16.47;51.26;100201.22;4999797;28;20215;-80
2023/01/01 01:15:48;;;;;;;8.73;3.40;;;;;;;16.43;51.19;100213.22;4998774;28;20216;-81
2023/01/01 01:18:15;;;;;;;8.97;2.63;;;;;;;16.46;51.20;100189.59;5002033;28;20214;-80
2023/01/01 01:20:50;;;;;;;5.47;1.80;;;;;;;16.45;51.19;100212.09;4995950;28;20210;-81
2023/01/01 01:23:18;;;;;;;6.13;2.00;;;;;;;16.44;51.36;100196.97;5002551;28;20210;-82
2023/01/01 01:25:45;;;;;;;9.60;3.27;;;;;;;16.43;51.33;100214.09;4994079;28;20269;-81
2023/01/01 01:28:11;;;;;;;7.10;2.23;;;;;;;16.42;51.37;100208.84;4996415;28;20202;-79
2023/01/01 01:30:39;;;;;;;7.17;2.40;;;;;;;16.42;51.42;100216.91;4992943;28;20217;-80
2023/01/01 01:33:06;;;;;;;9.83;2.43;;;;;;;16.45;51.33;100228.22;4996739;28;20214;-80
2023/01/01 01:35:33;;;;;;;7.00;2.43;;;;;;;16.44;51.30;100229.22;4993738;28;20612;-79
2023/01/01 01:37:59;;;;;;;5.23;2.17;;;;;;;16.42;51.05;100224.97;4993132;28;20323;-80
2023/01/01 01:40:26;;;;;;;9.47;2.87;;;;;;;16.44;51.02;100225.69;5006586;28;20662;-80
2023/01/01 01:42:52;;;;;;;8.33;2.33;;;;;;;16.42;51.11;100241.09;5002011;28;20217;-81
2023/01/01 01:45:19;;;;;;;6.27;2.50;;;;;;;16.44;50.77;100228.38;5001948;28;20234;-79
2023/01/01 01:47:51;;;;;;;8.00;2.63;;;;;;;16.44;50.85;100237.28;4994325;28;20698;-80
2023/01/01 01:50:24;;;;;;;8.57;2.60;;;;;;;16.44;50.78;100237.28;4997222;28;20676;-80
2023/01/01 01:53:06;;;;;;;5.93;2.93;;;;;;;16.46;51.04;100229.09;4990368;28;20342;-82
2023/01/01 01:55:37;;;;;;;7.33;2.60;;;;;;;16.42;50.79;100230.34;4996688;28;21478;-80
2023/01/01 01:58:05;;;;;;;7.87;2.23;;;;;;;16.41;50.86;100242.94;4987966;28;20221;-80
2023/01/01 02:00:32;;;;;;;6.77;2.20;;;;;;;16.39;50.90;100209.97;4996794;28;20664;-80
2023/01/01 02:03:04;;;;;;;5.50;2.10;;;;;;;16.41;50.72;100213.38;4996804;28;20206;-80
2023/01/01 02:05:31;;;;;;;7.93;2.77;;;;;;;16.41;50.48;100226.81;4998222;28;20242;-81
2023/01/01 02:07:59;;;;;;;9.20;2.40;;;;;;;16.38;50.61;100216.34;5001429;28;20238;-81
2023/01/01 02:10:26;;;;;;;7.80;2.90;;;;;;;16.38;50.54;100237.84;5008698;28;20221;-81
2023/01/01 02:12:53;;;;;;;3.57;2.27;;;;;;;16.35;50.16;100230.06;5003917;28;20211;-79
2023/01/01 02:15:23;;;;;;;9.23;2.60;;;;;;;16.36;50.15;100223.72;5004854;28;20655;-80
2023/01/01 02:17:59;;;;;;;8.60;2.67;;;;;;;16.37;50.24;100224.56;5001860;28;20227;-79
2023/01/01 02:20:48;;;;;;;9.80;3.00;;;;;;;16.39;50.06;100225.25;4997239;28;20201;-80
2023/01/01 02:23:38;;;;;;;7.87;3.10;;;;;;;16.32;50.25;100220.44;5002798;28;20206;-82
2023/01/01 02:26:21;;;;;;;9.73;2.93;;;;;;;16.27;50.19;100233.50;4993269;28;20235;-82
2023/01/01 02:29:01;;;;;;;9.47;3.23;;;;;;;16.26;50.25;100234.50;4993828;28;20652;-82
2023/01/01 02:31:31;;;;;;;8.00;2.80;;;;;;;16.22;50.28;100256.41;4994239;28;20203;-83
2023/01/01 02:34:03;;;;;;;8.63;2.70;;;;;;;16.19;50.28;100252.16;4996739;28;20212;-84
2023/01/01 02:36:33;;;;;;;11.80;2.83;;;;;;;16.19;50.14;100244.09;4994441;28;20236;-82
2023/01/01 02:39:03;;;;;;;9.37;2.97;;;;;;;16.18;50.31;100252.28;4995099;28;20210;-83
2023/01/01 02:41:34;;;;;;;5.70;2.10;;;;;;;16.16;50.30;100255.13;4991135;28;20221;-83
2023/01/01 02:44:02;;;;;;;6.20;2.23;;;;;;;16.18;50.09;100253.16;4995524;28;20207;-84
2023/01/01 02:46:32;;;;;;;5.80;2.50;;;;;;;16.19;50.06;100246.78;4988857;28;20710;-85
2023/01/01 02:48:59;;;;;;;7.07;2.70;;;;;;;16.18;50.13;100246.94;4995611;28;20609;-82
2023/01/01 02:51:34;;;;;;;6.17;2.73;;;;;;;16.15;49.78;100257.94;4995339;28;20214;-83
2023/01/01 02:54:08;;;;;;;8.57;3.60;;;;;;;16.14;49.87;100249.03;4996615;28;20215;-82
2023/01/01 02:56:41;;;;;;;8.63;2.83;;;;;;;16.17;49.80;100256.81;4995879;28;20228;-82
2023/01/01 03:02:26;;;;;;;8.20;3.40;;;;;;;16.17;49.83;100264.03;4933261;29;20215;-82
2023/01/01 03:05:03;;;;;;;9.90;3.70;;;;;;;16.16;49.85;100259.66;4932312;29;20222;-82
2023/01/01 03:07:40;;;;;;;7.10;2.77;;;;;;;16.15;49.82;100266.84;4977871;28;20244;-84
2023/01/01 03:10:15;;;;;;;10.20;2.70;;;;;;;16.12;49.85;100258.25;4997499;28;20220;-84
2023/01/01 03:12:47;;;;;;;9.70;3.50;;;;;;;16.12;49.54;100263.63;4993946;28;20201;-83
2023/01/01 03:15:24;;;;;;;9.10;3.93;;;;;;;16.08;49.72;100270.28;4998214;28;20212;-82
2023/01/01 03:17:59;;;;;;;8.47;4.23;;;;;;;16.07;49.57;100264.06;4995824;28;20242;-82
2023/01/01 03:20:30;;;;;;;9.43;4.63;;;;;;;16.08;49.32;100265.75;5005816;28;20218;-83
2023/01/01 03:23:02;;;;;;;8.23;2.93;;;;;;;16.11;49.27;100278.06;4996416;28;20217;-84
2023/01/01 03:25:32;;;;;;;3.87;2.20;;;;;;;16.07;49.42;100269.44;4995154;28;20213;-84
2023/01/01 03:28:02;;;;;;;8.23;2.90;;;;;;;16.04;49.26;100260.78;4996230;28;20231;-83
2023/01/01 03:30:34;;;;;;;6.60;2.77;;;;;;;16.04;49.03;100271.53;4996191;28;20208;-82
2023/01/01 03:33:07;;;;;;;5.00;2.30;;;;;;;16.00;49.05;100270.13;4994088;28;20210;-82
2023/01/01 03:35:38;;;;;;;6.23;2.47;;;;;;;16.01;49.04;100267.28;4994810;28;20683;-83
2023/01/01 03:38:08;;;;;;;6.50;2.53;;;;;;;16.01;48.95;100271.81;4992851;28;20706;-82
2023/01/01 03:40:38;;;;;;;6.93;2.40;;;;;;;15.96;49.06;100265.03;4997782;28;20198;-83
2023/01/01 03:43:09;;;;;;;4.03;2.33;;;;;;;15.99;48.81;100280.00;5003495;28;20209;-84
2023/01/01 03:45:42;;;;;;;7.87;2.43;;;;;;;15.98;48.45;100276.47;4997725;28;20209;-82
2023/01/01 03:48:09;;;;;;;6.77;2.33;;;;;;;15.96;48.39;100282.97;4999268;28;20206;-84
2023/01/01 03:50:49;;;;;;;7.63;2.50;;;;;;;15.91;48.67;100272.69;4992587;28;20221;-84
2023/01/01 03:53:26;;;;;;;5.20;2.23;;;;;;;15.88;48.40;100281.00;5012777;28;20590;-84
2023/01/01 03:56:02;;;;;;;7.00;2.20;;;;;;;15.87;48.50;100273.94;5001784;28;20198;-85
2023/01/01 03:58:35;;;;;;;6.93;2.50;;;;;;;15.84;48.34;100279.59;4996356;28;20213;-84
2023/01/01 04:01:11;;;;;;;5.00;2.17;;;;;;;15.82;48.61;100268.13;4992548;28;20213;-84
2023/01/01 04:03:40;;;;;;;5.20;3.00;;;;;;;15.80;48.46;100270.09;4996789;28;20197;-85
2023/01/01 04:06:07;;;;;;;6.83;2.10;;;;;;;15.80;48.53;100272.78;4993989;28;20233;-83
2023/01/01 04:08:35;;;;;;;5.30;1.90;;;;;;;15.80;48.70;100264.72;5001665;28;20211;-83
2023/01/01 04:12:00;;;;;;;7.07;2.37;;;;;;;15.79;48.20;100287.19;5002041;28;20209;-82
2023/01/01 04:13:58;;;;;;;10.47;2.57;;;;;;;15.79;48.42;100272.91;5002790;28;20209;-85
2023/01/01 04:16:26;;;;;;;6.40;2.33;;;;;;;15.75;48.60;100272.38;4996259;28;20233;-84
2023/01/01 04:18:52;;;;;;;6.00;2.30;;;;;;;15.81;48.21;100290.59;5001998;28;20748;-83
2023/01/01 04:21:19;;;;;;;5.80;2.23;;;;;;;15.79;48.28;100283.66;5004046;28;20210;-83
2023/01/01 04:23:45;;;;;;;4.03;1.80;;;;;;;15.75;48.78;100293.84;4993126;28;20210;-84
2023/01/01 04:26:13;;;;;;;5.93;2.10;;;;;;;15.74;48.54;100288.63;5003815;28;20674;-82
2023/01/01 04:28:40;;;;;;;5.40;2.10;;;;;;;15.73;48.51;100287.78;4998623;28;20208;-82
2023/01/01 04:31:06;;;;;;;4.63;2.10;;;;;;;15.73;48.43;100289.59;5004833;28;20210;-82
2023/01/01 04:33:34;;;;;;;4.00;2.37;;;;;;;15.69;48.83;100289.03;5008200;28;20213;-83
2023/01/01 04:36:04;;;;;;;5.83;1.77;;;;;;;15.69;48.57;100294.41;4997331;28;20267;-83
2023/01/01 04:38:32;;;;;;;1.63;1.43;;;;;;;15.67;48.81;100280.25;4999964;28;20736;-83
2023/01/01 04:40:59;;;;;;;5.07;1.90;;;;;;;15.70;48.44;100292.56;5000495;28;20598;-84
2023/01/01 04:43:25;;;;;;;5.67;2.40;;;;;;;15.67;48.76;100296.38;4995300;28;20572;-84
2023/01/01 04:45:55;;;;;;;5.60;1.93;;;;;;;15.67;48.50;100296.38;4998882;28;20225;-84
2023/01/01 04:48:22;;;;;;;4.77;2.03;;;;;;;15.66;48.43;100293.81;5000209;28;20197;-82
2023/01/01 04:50:55;;;;;;;2.77;1.60;;;;;;;15.64;48.49;100299.31;5000331;28;20220;-81
2023/01/01 04:53:22;;;;;;;3.40;1.70;;;;;;;15.56;48.84;100310.78;4999109;28;20260;-83
2023/01/01 04:55:48;;;;;;;4.30;1.60;;;;;;;15.54;48.65;100307.34;5009291;28;20205;-82
2023/01/01 04:58:15;;;;;;;3.50;1.83;;;;;;;15.56;48.80;100307.25;4993320;28;20209;-81
2023/01/01 05:00:41;;;;;;;3.47;1.70;;;;;;;15.57;48.95;100315.16;4993071;28;20212;-82
2023/01/01 05:03:08;;;;;;;4.60;1.73;;;;;;;15.55;48.67;100318.94;4994281;28;20216;-82
2023/01/01 05:05:34;;;;;;;5.10;1.83;;;;;;;15.53;48.81;100329.78;5006359;28;20350;-82
2023/01/01 05:08:02;;;;;;;4.53;2.00;;;;;;;15.53;48.82;100315.53;4997718;28;20714;-82
2023/01/01 05:10:29;;;;;;;3.33;1.80;;;;;;;15.56;48.71;100321.50;4995449;28;20200;-82
2023/01/01 05:12:55;;;;;;;3.73;1.30;;;;;;;15.58;48.87;100329.44;4990614;28;20216;-82
2023/01/01 05:15:22;;;;;;;4.90;1.73;;;;;;;15.57;48.92;100333.94;4994077;28;20216;-82
2023/01/01 05:17:48;;;;;;;3.50;1.60;;;;;;;15.56;49.01;100336.75;4992487;28;20229;-82
2023/01/01 05:20:15;;;;;;;3.73;1.50;;;;;;;15.57;49.09;100335.78;5001016;28;20209;-82
2023/01/01 05:22:41;;;;;;;4.70;1.40;;;;;;;15.57;49.37;100335.78;5004084;28;20220;-83
2023/01/01 05:25:09;;;;;;;5.10;1.50;;;;;;;15.56;49.31;100339.44;5002769;28;20217;-84
2023/01/01 05:27:36;;;;;;;3.53;1.40;;;;;;;15.52;49.46;100341.50;4996685;28;20232;-83
2023/01/01 05:30:02;;;;;;;5.07;1.47;;;;;;;15.53;49.31;100348.59;5002332;28;20216;-83
2023/01/01 05:32:29;;;;;;;2.30;1.57;;;;;;;15.49;49.41;100351.66;4995970;28;20196;-83
2023/01/01 05:34:56;;;;;;;3.27;1.60;;;;;;;15.50;49.50;100353.38;5008990;28;20846;-82
2023/01/01 05:37:22;;;;;;;3.20;1.20;;;;;;;15.49;49.53;100341.78;5005972;28;20244;-83
2023/01/01 05:39:48;;;;;;;5.70;1.50;;;;;;;15.46;49.58;100357.31;5000617;28;20219;-84
2023/01/01 05:42:17;;;;;;;4.13;1.50;;;;;;;15.45;49.81;100348.41;5005334;28;20215;-83
2023/01/01 05:44:44;;;;;;;2.77;1.40;;;;;;;15.45;49.70;100344.88;5007232;28;20765;-81
2023/01/01 05:47:11;;;;;;;3.93;1.50;;;;;;;15.46;49.83;100342.03;4999007;28;20232;-81
2023/01/01 05:49:38;;;;;;;2.93;1.37;;;;;;;15.44;49.81;100360.13;5004642;28;20770;-83
2023/01/01 05:52:04;;;;;;;4.97;1.70;;;;;;;15.43;49.95;100349.50;4998594;28;20208;-83
2023/01/01 05:54:31;;;;;;;2.50;1.73;;;;;;;15.42;50.20;100355.88;5000061;28;20725;-82
2023/01/01 05:56:57;;;;;;;3.70;1.30;;;;;;;15.42;50.01;100351.34;5002343;28;20662;-82
2023/01/01 05:59:25;;;;;;;3.00;1.50;;;;;;;15.42;49.99;100356.72;4999270;28;20621;-82
2023/01/01 06:01:52;;;;;;;5.87;1.50;;;;;;;15.45;49.57;100350.22;5001770;28;20230;-82
2023/01/01 06:04:18;;;;;;;2.50;1.40;;;;;;;15.45;49.89;100363.66;5003180;28;20210;-82
2023/01/01 06:06:45;;;;;;;3.13;1.20;;;;;;;15.45;49.75;100374.38;5000207;28;20626;-83
2023/01/01 06:09:11;;;;;;;3.27;1.50;;;;;;;15.45;49.78;100379.75;4996731;28;20213;-83
2023/01/01 06:11:38;;;;;;;4.80;1.70;;;;;;;15.42;49.64;100380.00;4999514;28;20208;-83
2023/01/01 06:14:04;;;;;;;3.30;1.00;;;;;;;15.42;49.86;100406.84;5000708;28;20212;-83
2023/01/01 06:16:32;;;;;;;5.50;1.40;;;;;;;15.37;50.17;100395.69;5004988;28;20220;-83
2023/01/01 06:18:59;;;;;;;5.30;1.20;;;;;;;15.36;50.02;100405.56;4998878;28;20568;-84
2023/01/01 06:21:27;;;;;;;3.90;1.53;;;;;;;15.35;50.28;100393.16;5003351;28;20209;-83
2023/01/01 06:23:55;;;;;;;4.60;1.37;;;;;;;15.36;50.44;100397.53;5006084;28;20212;-81
2023/01/01 06:26:24;;;;;;;4.00;1.43;;;;;;;15.34;50.28;100379.84;5003099;28;20227;-82
2023/01/01 06:28:51;;;;;;;2.73;1.40;;;;;;;15.30;50.61;100392.69;5003636;28;20213;-82
2023/01/01 06:31:19;;;;;;;3.90;1.57;;;;;;;15.28;50.39;100392.81;5004729;28;20556;-82
2023/01/01 06:33:49;;;;;;;4.20;1.60;;;;;;;15.33;50.54;100386.22;4998653;28;20232;-83
2023/01/01 06:36:17;;;;;;;7.63;1.50;;;;;;;15.28;50.55;100392.81;4997469;28;20236;-84
2023/01/01 06:38:45;;;;;;;2.77;1.27;;;;;;;15.26;50.74;100410.03;5004817;28;20216;-82
2023/01/01 06:41:14;;;;;;;2.63;1.20;;;;;;;15.26;50.75;100408.19;4999450;28;20210;-82
2023/01/01 06:43:40;;;;;;;4.97;1.20;;;;;;;15.18;50.61;100416.06;4998638;28;20215;-83
2023/01/01 06:46:14;;;;;;;4.77;1.67;;;;;;;15.14;50.97;100422.69;4997746;28;20233;-82
2023/01/01 06:48:40;;;;;;;3.90;1.30;;;;;;;15.14;50.93;100422.69;5000490;28;20234;-82
2023/01/01 06:51:10;;;;;;;4.97;1.20;;;;;;;15.15;51.15;100427.06;5003823;28;20208;-82
2023/01/01 06:53:36;;;;;;;4.57;1.50;;;;;;;15.12;51.32;100438.03;4999550;28;20195;-82
2023/01/01 06:56:03;;;;;;;2.40;1.20;;;;;;;15.11;51.49;100430.13;5003610;28;20227;-84
2023/01/01 06:58:30;;;;;;;3.33;1.13;;;;;;;15.11;51.55;100438.19;5004640;28;20572;-84
2023/01/01 07:01:04;;;;;;;2.67;1.30;;;;;;;15.09;51.64;100437.44;4999438;28;20228;-84
2023/01/01 07:03:30;;;;;;;2.87;1.10;;;;;;;15.08;51.86;100441.97;4998329;28;20205;-83
2023/01/01 07:05:56;;;;;;;3.97;1.40;;;;;;;15.05;51.63;100442.22;4996604;28;20651;-84
2023/01/01 07:08:24;;;;;;;3.00;1.43;;;;;;;15.04;51.79;100453.09;4988490;28;20232;-83
2023/01/01 07:10:51;;;;;;;3.63;1.20;;;;;;;15.04;51.79;100450.44;4999518;28;20211;-83
2023/01/01 07:13:17;;;;;;;2.50;1.23;;;;;;;15.01;52.13;100466.78;4996567;28;20204;-83
2023/01/01 07:15:44;;;;;;;4.10;1.30;;;;;;;15.01;52.08;100473.00;4999192;28;21118;-82
2023/01/01 07:18:10;;;;;;;4.33;1.53;;;;;;;15.02;51.91;100481.88;4993269;28;20232;-84
2023/01/01 07:20:37;;;;;;;4.77;1.40;;;;;;;14.98;52.41;100492.00;4990887;28;20676;-84
2023/01/01 07:23:03;;;;;;;2.77;1.40;;;;;;;14.98;52.37;100467.88;4990763;28;20595;-82
2023/01/01 07:25:31;;;;;;;5.47;1.37;;;;;;;14.95;52.21;100457.41;4996465;28;20208;-82
2023/01/01 07:27:57;;;;;;;2.60;1.40;;;;;;;14.98;52.26;100462.50;5000112;28;20247;-82
2023/01/01 07:30:24;;;;;;;5.07;1.60;;;;;;;14.96;52.05;100475.19;4993689;28;20204;-82
2023/01/01 07:32:54;;;;;;;2.07;1.13;;;;;;;14.95;52.55;100492.25;4994918;28;20305;-82
2023/01/01 07:35:21;;;;;;;4.50;1.60;;;;;;;14.93;52.59;100510.31;4998456;28;20212;-82
2023/01/01 07:37:47;;;;;;;4.53;1.40;;;;;;;14.92;52.67;100505.94;4989692;28;20249;-83
2023/01/01 07:40:14;;;;;;;4.57;1.37;;;;;;;14.91;53.01;100507.75;4993367;28;20203;-86
2023/01/01 07:42:42;;;;;;;4.40;1.57;;;;;;;14.88;52.99;100520.56;4995766;28;20213;-84
2023/01/01 07:45:11;;;;;;;3.40;1.40;;;;;;;14.87;53.38;100526.91;4992992;28;20216;-84
2023/01/01 07:47:38;;;;;;;4.57;1.57;;;;;;;14.86;53.55;100533.28;4997177;28;20227;-84
2023/01/01 07:50:05;;;;;;;3.70;1.60;;;;;;;14.84;53.41;100533.41;5004258;28;20206;-83
2023/01/01 07:52:31;;;;;;;3.10;1.43;;;;;;;14.87;53.48;100521.53;4998413;28;20215;-83
2023/01/01 07:54:57;;;;;;;3.37;1.77;;;;;;;14.87;53.55;100529.59;4998513;28;20211;-82
2023/01/01 07:57:24;;;;;;;3.10;1.50;;;;;;;14.87;53.88;100535.81;4993405;28;20223;-83
2023/01/01 07:59:52;;;;;;;2.70;0.97;;;;;;;14.89;53.72;100549.09;4989618;28;20210;-82
2023/01/01 08:02:18;;;;;;;5.53;1.53;;;;;;;14.87;53.88;100535.81;4996864;28;20216;-82
2023/01/01 08:04:45;;;;;;;3.77;1.73;;;;;;;14.86;54.09;100558.25;5004994;28;20223;-82
2023/01/01 08:07:11;;;;;;;2.27;1.10;;;;;;;14.91;53.78;100545.28;5001735;28;20245;-82
2023/01/01 08:09:37;;;;;;;4.23;1.50;;;;;;;14.90;53.83;100545.41;4988176;28;20207;-82
2023/01/01 08:12:04;;;;;;;4.07;1.50;;;;;;;14.88;53.82;100547.38;5001469;28;20206;-83
2023/01/01 08:14:31;;;;;;;5.00;1.53;;;;;;;14.86;54.22;100547.53;5001054;28;20213;-82
2023/01/01 08:16:59;;;;;;;3.00;1.20;;;;;;;14.90;54.33;100548.09;4997106;28;20227;-82
2023/01/01 08:19:25;;;;;;;2.73;1.30;;;;;;;14.89;53.97;100546.41;4987135;28;20210;-82
2023/01/01 08:21:52;;;;;;;2.50;1.30;;;;;;;14.87;54.14;100562.63;4995688;28;20207;-85
2023/01/01 08:24:18;;;;;;;3.67;1.40;;;;;;;14.89;53.81;100559.81;4996645;28;20203;-84
2023/01/01 08:26:44;;;;;;;3.13;1.70;;;;;;;14.87;53.91;100584.06;5010054;28;20785;-84
2023/01/01 08:29:11;;;;;;;2.40;0.90;;;;;;;14.86;53.93;100568.13;4990281;28;20242;-85
2023/01/01 08:31:37;;;;;;;3.63;1.50;;;;;;;14.87;53.84;100572.50;4997271;28;20685;-84
2023/01/01 08:34:05;;;;;;;4.90;1.00;;;;;;;14.86;53.98;100573.50;5004607;28;20207;-82
2023/01/01 08:36:32;;;;;;;3.53;1.20;;;;;;;14.86;54.01;100574.34;4996873;28;20242;-84
2023/01/01 08:38:59;;;;;;;2.00;1.20;;;;;;;14.87;54.23;100583.22;5000578;28;20199;-82
2023/01/01 08:41:25;;;;;;;4.47;1.57;;;;;;;14.86;53.99;100581.53;4993091;28;20215;-82
2023/01/01 08:43:52;;;;;;;2.47;1.20;;;;;;;14.84;54.50;100580.81;5000944;28;20210;-82
2023/01/01 08:46:18;;;;;;;6.30;1.37;;;;;;;14.86;54.24;100584.22;4994829;28;20228;-82
2023/01/01 08:48:45;;;;;;;3.73;1.20;;;;;;;14.82;54.42;100577.41;5000041;28;20234;-82
2023/01/01 08:51:13;;;;;;;4.07;1.33;;;;;;;14.80;54.47;100579.34;4996198;28;20214;-82
2023/01/01 08:53:39;;;;;;;3.10;1.30;;;;;;;14.79;54.53;100591.03;5007857;28;20211;-83
2023/01/01 08:56:09;;;;;;;3.20;1.00;;;;;;;14.79;54.67;100589.22;4994295;28;20230;-83
2023/01/01 08:58:37;;;;;;;3.37;1.33;;;;;;;14.77;54.95;100593.00;5000364;28;20200;-83
2023/01/01 09:01:04;;;;;;;4.33;1.37;;;;;;;14.75;54.88;100593.13;4996492;28;20204;-84
2023/01/01 09:03:30;;;;;;;2.73;1.10;;;;;;;14.76;54.92;100602.03;5010417;28;20626;-83
2023/01/01 09:05:57;;;;;;;1.90;1.20;;;;;;;14.75;54.89;100603.84;4995697;28;20204;-83
2023/01/01 09:08:25;;;;;;;2.93;1.20;;;;;;;14.74;54.79;100615.53;5008223;28;20232;-83
2023/01/01 09:10:53;;;;;;;3.60;1.30;;;;;;;14.74;54.88;100622.72;4998067;28;20208;-83
2023/01/01 09:13:21;;;;;;;3.20;1.50;;;;;;;14.73;55.01;100639.78;5003815;28;20671;-82
2023/01/01 09:15:48;;;;;;;2.13;1.00;;;;;;;14.74;55.05;100638.81;5004913;28;20211;-83
2023/01/01 09:18:14;;;;;;;3.27;1.20;;;;;;;14.74;55.24;100647.72;4995983;28;20613;-83
2023/01/01 09:20:41;;;;;;;1.63;1.20;;;;;;;14.77;55.37;100643.94;4993532;28;21751;-83
2023/01/01 09:23:08;;;;;;;2.57;1.30;;;;;;;14.77;55.49;100654.66;4999360;28;20292;-82
2023/01/01 09:25:36;;;;;;;2.07;1.13;;;;;;;14.74;55.67;100658.44;5008013;28;20578;-82
2023/01/01 09:28:05;;;;;;;2.53;1.37;;;;;;;14.73;55.81;100662.09;4999653;28;20239;-83
2023/01/01 09:30:31;;;;;;;3.67;1.13;;;;;;;14.74;56.00;100654.91;5005107;28;20967;-83
2023/01/01 09:32:58;;;;;;;2.77;1.13;;;;;;;14.70;56.21;100650.75;5000910;28;20222;-82
2023/01/01 09:35:25;;;;;;;3.23;1.20;;;;;;;14.70;56.39;100664.16;4993082;28;20543;-82
2023/01/01 09:37:51;;;;;;;3.77;1.37;;;;;;;14.70;56.24;100680.25;4997345;28;20266;-82
2023/01/01 09:40:27;;;;;;;1.73;1.03;;;;;;;14.70;56.27;100673.06;4995921;28;20204;-83
2023/01/01 09:43:06;;;;;;;5.30;1.67;;;;;;;14.71;56.37;100681.94;5003332;28;20203;-82
2023/01/01 09:45:40;;;;;;;2.60;1.47;;;;;;;14.70;56.53;100697.19;5001946;28;20230;-82
2023/01/01 09:48:10;;;;;;;3.23;1.10;;;;;;;14.69;56.43;100692.78;4996400;28;20235;-82
2023/01/01 09:50:39;;;;;;;4.20;1.87;;;;;;;14.68;57.01;100704.53;5004586;28;20204;-83
2023/01/01 09:53:13;;;;;;;3.03;1.23;;;;;;;14.66;57.00;100702.94;4998404;28;20205;-82
2023/01/01 09:55:46;;;;;;;4.30;1.20;;;;;;;14.61;57.14;100703.28;4997044;28;20216;-82
2023/01/01 09:58:15;;;;;;;3.07;1.30;;;;;;;14.64;57.23;100702.19;5005573;28;20211;-83
2023/01/01 10:00:44;;;;;;;3.03;1.10;;;;;;;14.66;57.37;100708.28;4996140;28;20207;-83
2023/01/01 10:03:25;;;;;;;2.30;1.20;;;;;;;14.69;57.25;100716.09;4994699;28;20209;-82
2023/01/01 10:05:59;;;;;;;3.27;1.33;;;;;;;14.70;57.24;100715.94;4988133;28;20218;-82
2023/01/01 10:08:39;;;;;;;2.97;1.20;;;;;;;14.70;57.58;100728.50;5000630;28;20223;-81
2023/01/01 10:11:14;;;;;;;4.33;1.53;;;;;;;14.69;57.90;100733.00;4998046;28;20732;-83
2023/01/01 10:13:44;;;;;;;2.70;1.30;;;;;;;14.67;58.05;100734.13;4990457;28;20605;-83
2023/01/01 10:16:17;;;;;;;3.20;1.70;;;;;;;14.67;58.01;100740.34;4992754;28;20304;-82
2023/01/01 10:18:46;;;;;;;3.87;1.50;;;;;;;14.66;58.78;100732.41;5004483;28;20258;-83
2023/01/01 10:21:15;;;;;;;3.17;1.10;;;;;;;14.63;60.08;100732.66;4996061;28;20230;-82
2023/01/01 10:23:46;;;;;;;3.90;1.30;;;;;;;14.61;60.90;100735.47;5002949;28;20734;-83
2023/01/01 10:26:16;;;;;;;3.17;1.57;;;;;;;14.53;63.43;100754.81;5005528;28;20226;-83
2023/01/01 10:28:51;;;;;;;2.60;1.30;;;;;;;14.48;63.44;100750.81;5004576;28;20794;-82
2023/01/01 10:31:21;;;;;;;5.40;1.57;;;;;;;14.42;64.31;100744.09;4998949;28;20203;-82
2023/01/01 10:33:47;;;;;;;3.77;1.47;;;;;;;14.34;64.98;100738.41;4996954;28;20219;-82
2023/01/01 10:36:16;;;;;;;3.57;1.60;;;;;;;14.27;65.48;100739.88;5002802;28;20231;-82
2023/01/01 10:38:43;;;;;;;3.10;1.87;;;;;;;14.19;66.10;100751.19;4998696;28;20196;-82
2023/01/01 10:41:11;;;;;;;2.87;1.30;;;;;;;14.15;66.97;100760.41;5007014;28;20211;-82
2023/01/01 10:43:38;;;;;;;3.17;1.23;;;;;;;14.11;67.16;100771.50;5001096;28;20207;-82
2023/01/01 10:46:06;;;;;;;5.03;1.73;;;;;;;14.05;68.08;100766.59;5001158;28;20204;-82
2023/01/01 10:48:34;;;;;;;4.70;1.60;;;;;;;13.99;68.64;100770.59;4998252;28;20563;-83
2023/01/01 10:51:03;;;;;;;4.20;1.50;;;;;;;13.96;68.98;100767.31;4990998;28;20207;-82
2023/01/01 10:53:32;;;;;;;5.50;1.40;;;;;;;13.90;69.68;100765.94;4997063;28;20294;-82
2023/01/01 10:56:08;;;;;;;3.40;1.60;;;;;;;13.86;69.83;100777.84;4994396;28;20216;-82
2023/01/01 10:58:38;;;;;;;5.57;1.60;;;;;;;13.82;70.10;100781.72;5009864;28;20205;-82
2023/01/01 11:01:07;;;;;;;2.30;1.40;;;;;;;13.76;70.93;100796.44;4997510;28;20219;-82
2023/01/01 11:03:35;;;;;;;3.80;1.70;;;;;;;13.72;71.21;100794.94;4994685;28;20208;-82
2023/01/01 11:06:04;;;;;;;2.30;1.27;;;;;;;13.67;71.36;100814.97;4992290;28;20201;-82
2023/01/01 11:08:33;;;;;;;3.67;1.67;;;;;;;13.64;71.69;100821.41;4994763;28;20234;-82
2023/01/01 11:11:01;;;;;;;2.53;1.10;;;;;;;13.58;72.24;100821.00;5006142;28;20406;-83
2023/01/01 11:13:29;;;;;;;3.87;1.40;;;;;;;13.49;73.00;100820.69;4991356;28;20227;-82
2023/01/01 11:15:56;;;;;;;8.10;1.73;;;;;;;13.47;72.86;100816.41;4992527;28;20711;-82
2023/01/01 11:18:34;;;;;;;3.70;1.37;;;;;;;13.44;73.45;100817.50;4995689;28;20211;-82
2023/01/01 11:21:02;;;;;;;3.77;1.27;;;;;;;13.41;73.71;100806.19;4997044;28;20297;-82
2023/01/01 11:23:32;;;;;;;4.47;1.47;;;;;;;13.38;74.11;100801.06;4987070;28;20210;-82
2023/01/01 11:26:02;;;;;;;3.03;1.33;;;;;;;13.36;74.91;100801.16;4992958;28;20226;-82
2023/01/01 11:28:30;;;;;;;4.47;1.50;;;;;;;13.34;75.21;100808.44;5005105;28;20223;-82
2023/01/01 11:31:16;;;;;;;5.77;1.50;;;;;;;13.33;75.67;100792.50;4997019;28;20266;-82
2023/01/01 11:33:51;;;;;;;2.00;1.30;;;;;;;13.30;75.90;100782.00;4989558;28;20199;-82
2023/01/01 11:36:23;;;;;;;4.90;1.60;;;;;;;13.28;76.61;100773.25;5002805;28;20238;-82
2023/01/01 11:39:02;;;;;;;5.20;2.03;;;;;;;13.25;76.96;100763.66;4999026;28;20212;-81